createdAt,value
2019-04-26T00:01:23.031Z,56.80
2019-04-26T00:03:55.919Z,56.70
2019-04-26T00:06:25.666Z,56.80
2019-04-26T00:09:02.461Z,56.90
2019-04-26T00:11:53.778Z,56.50
2019-04-26T00:14:39.546Z,56.90
2019-04-26T00:17:19.730Z,56.70
2019-04-26T00:19:52.135Z,57.10
2019-04-26T00:22:21.886Z,56.80
2019-04-26T00:24:54.331Z,57.00
2019-04-26T00:27:23.706Z,56.90
2019-04-26T00:29:56.230Z,56.90
2019-04-26T00:32:25.775Z,56.90
2019-04-26T00:35:15.614Z,56.80
2019-04-26T00:37:45.130Z,56.90
2019-04-26T00:40:14.685Z,56.90
2019-04-26T00:42:45.316Z,56.60
2019-04-26T00:45:14.991Z,56.80
2019-04-26T00:47:48.808Z,56.70
2019-04-26T00:50:19.074Z,56.70
2019-04-26T00:52:49.635Z,56.70
2019-04-26T00:55:21.944Z,56.70
2019-04-26T00:58:10.867Z,56.70
2019-04-26T01:00:43.176Z,56.70
2019-04-26T01:03:15.197Z,56.90
2019-04-26T01:05:44.882Z,56.90
2019-04-26T01:08:17.403Z,56.80
2019-04-26T01:10:46.802Z,56.70
2019-04-26T01:13:16.447Z,56.80
2019-04-26T01:15:46.216Z,57.00
2019-04-26T01:18:18.262Z,56.90
2019-04-26T01:20:50.065Z,56.70
2019-04-26T01:23:21.181Z,56.80
2019-04-26T01:26:02.974Z,56.90
2019-04-26T01:28:47.150Z,56.80
2019-04-26T01:31:18.518Z,56.80
2019-04-26T01:33:48.336Z,56.80
2019-04-26T01:36:18.097Z,56.90
2019-04-26T01:38:52.042Z,56.80
2019-04-26T01:41:38.028Z,56.80
2019-04-26T01:44:27.430Z,56.80
2019-04-26T01:46:57.291Z,56.90
2019-04-26T01:49:26.751Z,56.80
2019-04-26T01:52:14.155Z,57.00
2019-04-26T01:54:45.358Z,56.90
2019-04-26T01:57:16.379Z,57.00
2019-04-26T01:59:50.500Z,56.80
2019-04-26T02:02:24.275Z,57.10
2019-04-26T02:04:59.240Z,56.90
2019-04-26T02:07:43.399Z,56.90
2019-04-26T02:10:15.701Z,57.00
2019-04-26T02:12:55.276Z,56.90
2019-04-26T02:15:27.750Z,56.90
2019-04-26T02:17:59.171Z,57.80
2019-04-26T02:20:57.558Z,57.00
2019-04-26T02:23:40.523Z,57.60
2019-04-26T02:26:28.351Z,56.90
2019-04-26T02:28:57.832Z,57.70
2019-04-26T02:31:29.304Z,57.20
2019-04-26T02:33:59.686Z,57.20
2019-04-26T02:36:47.873Z,57.10
2019-04-26T02:39:19.572Z,57.00
2019-04-26T02:41:51.658Z,56.80
2019-04-26T02:44:30.924Z,56.90
2019-04-26T02:47:26.959Z,56.80
2019-04-26T02:50:11.576Z,56.80
2019-04-26T02:52:52.773Z,56.90
2019-04-26T02:55:42.393Z,56.90
2019-04-26T02:58:14.389Z,56.80
2019-04-26T03:00:46.536Z,57.60
2019-04-26T03:03:17.979Z,56.70
2019-04-26T03:05:49.162Z,56.70
2019-04-26T03:08:23.424Z,56.80
2019-04-26T03:10:58.376Z,56.50
2019-04-26T03:13:36.892Z,56.60
2019-04-26T03:16:26.166Z,56.60
2019-04-26T03:19:05.572Z,56.70
2019-04-26T03:21:46.811Z,56.50
2019-04-26T03:24:21.932Z,56.70
2019-04-26T03:27:14.071Z,56.60
2019-04-26T03:30:17.611Z,56.70
2019-04-26T03:32:49.344Z,56.80
2019-04-26T03:35:23.086Z,57.20
2019-04-26T03:38:34.518Z,57.00
2019-04-26T03:41:24.242Z,57.20
2019-04-26T03:44:11.802Z,57.20
2019-04-26T03:46:49.727Z,57.40
2019-04-26T03:49:38.080Z,57.50
2019-04-26T03:52:46.075Z,57.30
2019-04-26T03:55:28.896Z,57.60
2019-04-26T03:58:05.582Z,57.70
2019-04-26T04:00:55.853Z,57.70
2019-04-26T04:03:46.121Z,57.60
2019-04-26T04:06:20.124Z,57.70
2019-04-26T04:08:55.757Z,57.50
2019-04-26T04:11:50.695Z,57.10
2019-04-26T04:14:40.498Z,56.90
2019-04-26T04:17:18.275Z,57.00
2019-04-26T04:20:06.959Z,56.70
2019-04-26T04:22:49.318Z,57.10
2019-04-26T04:25:34.852Z,57.10
2019-04-26T04:28:35.822Z,57.80
2019-04-26T04:31:23.200Z,57.40
2019-04-26T04:34:01.594Z,57.80
2019-04-26T04:36:34.067Z,57.70
2019-04-26T04:39:12.144Z,56.90
2019-04-26T04:42:05.676Z,56.20
2019-04-26T04:45:03.303Z,56.00
2019-04-26T04:48:23.048Z,56.10
2019-04-26T04:51:21.568Z,56.40
2019-04-26T04:54:18.175Z,56.10
2019-04-26T04:56:56.347Z,56.00
2019-04-26T04:59:31.530Z,56.50
2019-04-26T05:02:25.090Z,56.00
2019-04-26T05:05:38.326Z,56.00
2019-04-26T05:08:21.273Z,55.80
2019-04-26T05:11:11.650Z,55.80
2019-04-26T05:14:02.346Z,55.80
2019-04-26T05:19:46.768Z,55.70
2019-04-26T05:22:42.527Z,55.30
2019-04-26T05:25:40.286Z,55.00
2019-04-26T05:28:17.422Z,55.10
2019-04-26T05:31:11.038Z,55.20
2019-04-26T05:33:56.715Z,55.40
2019-04-26T05:36:35.198Z,54.70
2019-04-26T05:39:10.354Z,55.10
2019-04-26T05:42:00.963Z,54.40
2019-04-26T05:45:16.342Z,54.40
2019-04-26T05:48:02.967Z,54.40
2019-04-26T05:50:46.600Z,55.00
2019-04-26T05:57:32.817Z,55.00
2019-04-26T06:00:25.917Z,54.80
2019-04-26T06:03:33.963Z,55.40
2019-04-26T06:06:13.599Z,56.90
2019-04-26T06:09:25.096Z,55.60
2019-04-26T06:12:15.912Z,54.90
2019-04-26T06:15:02.284Z,54.70
2019-04-26T06:18:01.766Z,55.50
2019-04-26T06:20:45.657Z,55.20
2019-04-26T06:23:35.913Z,55.80
2019-04-26T06:26:42.750Z,55.50
2019-04-26T06:29:18.419Z,55.60
2019-04-26T06:32:08.965Z,55.50
2019-04-26T06:34:50.346Z,55.60
2019-04-26T06:37:41.936Z,56.10
2019-04-26T06:43:16.037Z,55.30
2019-04-26T06:46:06.632Z,55.10
2019-04-26T06:48:56.148Z,55.20
2019-04-26T06:51:49.215Z,54.90
2019-04-26T06:54:22.509Z,55.10
2019-04-26T06:57:25.159Z,55.40
2019-04-26T07:00:16.564Z,54.60
2019-04-26T07:03:10.057Z,54.90
2019-04-26T07:05:42.593Z,55.10
2019-04-26T07:08:18.078Z,55.10
2019-04-26T07:11:17.731Z,55.40
2019-04-26T07:14:11.460Z,55.00
2019-04-26T07:20:04.216Z,54.50
2019-04-26T07:23:12.684Z,54.50
2019-04-26T07:25:54.917Z,54.40
2019-04-26T07:28:38.490Z,54.40
2019-04-26T07:31:27.641Z,54.10
2019-04-26T07:34:16.443Z,54.20
2019-04-26T07:37:13.014Z,53.80
2019-04-26T07:43:26.377Z,54.00
2019-04-26T07:46:20.712Z,53.20
2019-04-26T07:49:12.438Z,53.20
2019-04-26T07:51:51.092Z,53.60
2019-04-26T07:54:53.857Z,53.10
2019-04-26T07:57:45.533Z,53.30
2019-04-26T08:00:18.547Z,52.90
2019-04-26T08:02:55.896Z,53.10
2019-04-26T08:08:22.200Z,52.10
2019-04-26T08:11:13.320Z,52.50
2019-04-26T08:14:04.634Z,52.40
2019-04-26T08:16:43.539Z,51.90
2019-04-26T08:19:16.168Z,52.30
2019-04-26T08:21:49.236Z,52.10
2019-04-26T08:24:23.572Z,52.10
2019-04-26T08:27:18.786Z,52.00
2019-04-26T08:29:49.125Z,51.60
2019-04-26T08:32:24.407Z,51.70
2019-04-26T08:35:08.134Z,51.10
2019-04-26T08:37:42.157Z,51.00
2019-04-26T08:40:26.398Z,51.40
2019-04-26T08:43:03.625Z,50.90
2019-04-26T08:46:01.934Z,50.50
2019-04-26T08:48:27.798Z,50.80
2019-04-26T08:50:59.691Z,50.90
2019-04-26T08:53:31.108Z,50.90
2019-04-26T08:56:02.811Z,50.50
2019-04-26T08:58:38.012Z,50.80
2019-04-26T09:01:15.056Z,50.70
2019-04-26T09:03:54.256Z,50.30
2019-04-26T09:06:32.928Z,50.50
2019-04-26T09:09:07.235Z,50.70
2019-04-26T09:11:59.162Z,50.10
2019-04-26T09:14:23.274Z,49.70
2019-04-26T09:16:52.681Z,49.50
2019-04-26T09:19:22.134Z,49.90
2019-04-26T09:21:53.710Z,50.00
2019-04-26T09:24:28.671Z,49.60
2019-04-26T09:27:02.500Z,49.40
2019-04-26T09:29:34.590Z,49.40
2019-04-26T09:32:05.863Z,49.30
2019-04-26T09:34:42.873Z,49.90
2019-04-26T09:37:12.347Z,49.00
2019-04-26T09:39:50.668Z,49.40
2019-04-26T09:42:39.332Z,49.60
2019-04-26T09:45:27.212Z,49.50
2019-04-26T09:47:58.243Z,49.20
2019-04-26T09:50:29.267Z,49.00
2019-04-26T09:53:01.618Z,48.60
2019-04-26T09:55:35.677Z,49.20
2019-04-26T09:58:02.158Z,49.80
2019-04-26T10:00:31.943Z,48.90
2019-04-26T10:03:09.411Z,48.80
2019-04-26T10:05:44.130Z,48.50
2019-04-26T10:08:16.905Z,48.90
2019-04-26T10:10:51.589Z,48.90
2019-04-26T10:13:21.968Z,48.50
2019-04-26T10:16:02.425Z,48.50
2019-04-26T10:18:32.296Z,49.00
2019-04-26T10:21:01.684Z,48.70
2019-04-26T10:23:33.771Z,49.00
2019-04-26T10:26:03.564Z,49.40
2019-04-26T10:28:32.936Z,49.10
2019-04-26T10:31:02.766Z,48.70
2019-04-26T10:33:32.652Z,48.50
2019-04-26T10:36:03.299Z,48.20
2019-04-26T10:38:32.670Z,47.60
2019-04-26T10:41:02.052Z,47.90
2019-04-26T10:43:31.508Z,46.90
2019-04-26T10:46:00.900Z,47.20
2019-04-26T10:48:30.289Z,47.40
2019-04-26T10:51:07.310Z,47.60
2019-04-26T10:53:41.506Z,46.90
2019-04-26T10:56:25.335Z,47.70
2019-04-26T10:59:15.719Z,46.50
2019-04-26T11:01:48.390Z,46.80
2019-04-26T11:04:18.021Z,47.00
2019-04-26T11:06:47.455Z,47.70
2019-04-26T11:09:16.894Z,47.10
2019-04-26T11:11:46.282Z,47.20
2019-04-26T11:14:22.344Z,47.30
2019-04-26T11:16:49.663Z,47.50
2019-04-26T11:19:24.845Z,47.90
2019-04-26T11:21:54.791Z,47.10
2019-04-26T11:24:25.374Z,47.20
2019-04-26T11:26:54.836Z,46.80
2019-04-26T11:29:25.011Z,47.50
2019-04-26T11:31:58.396Z,47.70
2019-04-26T11:34:26.376Z,46.70
2019-04-26T11:37:01.592Z,46.70
2019-04-26T11:39:31.040Z,47.20
2019-04-26T11:42:00.499Z,46.00
2019-04-26T11:44:29.890Z,46.50
2019-04-26T11:47:02.618Z,46.00
2019-04-26T11:49:30.873Z,45.50
2019-04-26T11:52:02.838Z,46.50
2019-04-26T11:54:32.418Z,47.00
2019-04-26T11:57:08.156Z,46.80
2019-04-26T11:59:35.882Z,46.40
2019-04-26T12:02:05.325Z,46.70
2019-04-26T12:04:36.367Z,46.30
2019-04-26T12:07:22.151Z,46.20
2019-04-26T12:09:53.150Z,46.00
2019-04-26T12:12:22.547Z,46.30
2019-04-26T12:15:04.020Z,46.00
2019-04-26T12:17:35.209Z,45.90
2019-04-26T12:20:07.974Z,46.30
2019-04-26T12:22:43.314Z,46.30
2019-04-26T12:25:14.638Z,46.00
2019-04-26T12:27:45.363Z,46.10
2019-04-26T12:30:15.157Z,45.50
2019-04-26T12:32:44.856Z,45.60
2019-04-26T12:35:14.414Z,46.20
2019-04-26T12:37:43.798Z,45.60
2019-04-26T12:40:13.690Z,45.30
2019-04-26T12:42:43.312Z,46.10
2019-04-26T12:45:36.934Z,45.50
2019-04-26T12:48:08.184Z,45.60
2019-04-26T12:50:37.902Z,45.40
2019-04-26T12:53:13.813Z,45.70
2019-04-26T12:55:49.225Z,45.70
2019-04-26T12:58:24.322Z,46.00
2019-04-26T13:00:57.530Z,46.10
2019-04-26T13:03:29.302Z,45.60
2019-04-26T13:05:59.103Z,45.80
2019-04-26T13:08:51.500Z,45.20
2019-04-26T13:11:24.377Z,45.40
2019-04-26T13:13:58.364Z,45.20
2019-04-26T13:16:41.346Z,44.50
2019-04-26T13:19:10.724Z,46.30
2019-04-26T13:21:40.128Z,45.50
2019-04-26T13:24:12.694Z,43.60
2019-04-26T13:26:42.162Z,44.30
2019-04-26T13:29:14.543Z,44.00
2019-04-26T13:31:43.982Z,44.90
2019-04-26T13:34:13.379Z,44.00
2019-04-26T13:36:42.769Z,45.50
2019-04-26T13:39:13.566Z,44.40
2019-04-26T13:41:44.019Z,44.40
2019-04-26T13:44:13.414Z,44.10
2019-04-26T13:46:53.439Z,43.40
2019-04-26T13:49:39.858Z,44.30
2019-04-26T13:52:09.406Z,44.10
2019-04-26T13:54:39.966Z,44.20
2019-04-26T13:57:11.267Z,43.80
2019-04-26T13:59:43.843Z,44.60
2019-04-26T14:02:13.294Z,44.90
2019-04-26T14:04:42.803Z,44.40
2019-04-26T14:07:19.963Z,42.80
2019-04-26T14:09:47.330Z,43.90
2019-04-26T14:12:19.402Z,45.00
2019-04-26T14:14:48.866Z,45.20
2019-04-26T14:17:18.422Z,44.30
2019-04-26T14:19:49.606Z,44.60
2019-04-26T14:22:20.623Z,43.70
2019-04-26T14:24:53.009Z,44.00
2019-04-26T14:27:27.107Z,45.40
2019-04-26T14:29:56.592Z,45.70
2019-04-26T14:32:25.979Z,47.50
2019-04-26T14:34:55.434Z,48.00
2019-04-26T14:37:24.835Z,45.60
2019-04-26T14:39:55.327Z,45.70
2019-04-26T14:42:34.475Z,46.20
2019-04-26T14:45:23.327Z,45.30
2019-04-26T14:47:47.474Z,45.30
2019-04-26T14:50:16.182Z,43.70
2019-04-26T14:52:45.581Z,43.70
2019-04-26T14:55:16.503Z,44.10
2019-04-26T14:57:46.687Z,43.30
2019-04-26T15:00:21.222Z,43.40
2019-04-26T15:03:00.786Z,44.20
2019-04-26T15:05:43.105Z,43.30
2019-04-26T15:08:13.344Z,44.00
2019-04-26T15:10:46.732Z,43.00
2019-04-26T15:13:19.956Z,43.90
2019-04-26T15:15:46.282Z,44.20
2019-04-26T15:18:16.006Z,44.20
2019-04-26T15:20:45.396Z,44.50
2019-04-26T15:23:14.795Z,44.00
2019-04-26T15:25:48.320Z,43.30
2019-04-26T15:28:15.732Z,43.00
2019-04-26T15:30:46.894Z,43.10
2019-04-26T15:33:16.418Z,43.20
2019-04-26T15:35:46.876Z,43.60
2019-04-26T15:38:16.411Z,43.90
2019-04-26T15:40:59.475Z,43.40
2019-04-26T15:43:42.918Z,42.90
2019-04-26T15:46:31.781Z,44.20
2019-04-26T15:49:05.122Z,44.80
2019-04-26T15:51:36.244Z,46.60
2019-04-26T15:54:05.652Z,44.30
2019-04-26T15:56:35.047Z,44.90
2019-04-26T15:59:04.723Z,44.30
2019-04-26T16:01:34.172Z,45.10
2019-04-26T16:04:06.342Z,44.30
2019-04-26T16:06:37.488Z,44.60
2019-04-26T16:09:08.747Z,44.50
2019-04-26T16:11:59.179Z,44.30
2019-04-26T16:14:31.464Z,43.80
2019-04-26T16:17:04.826Z,43.70
2019-04-26T16:19:30.944Z,44.60
2019-04-26T16:22:02.867Z,45.00
2019-04-26T16:24:34.178Z,44.40
2019-04-26T16:27:03.651Z,45.30
2019-04-26T16:29:34.748Z,45.50
2019-04-26T16:32:12.501Z,45.00
2019-04-26T16:34:47.640Z,44.00
2019-04-26T16:37:21.489Z,46.10
2019-04-26T16:39:48.532Z,44.70
2019-04-26T16:42:16.916Z,46.00
2019-04-26T16:44:46.548Z,45.90
2019-04-26T16:47:16.088Z,46.20
2019-04-26T16:49:46.669Z,46.20
2019-04-26T16:52:16.252Z,45.10
2019-04-26T16:54:45.713Z,46.00
2019-04-26T16:57:15.115Z,45.90
2019-04-26T16:59:51.060Z,45.10
2019-04-26T17:02:15.971Z,45.80
2019-04-26T17:05:03.643Z,46.20
2019-04-26T17:07:32.125Z,45.20
2019-04-26T17:10:03.142Z,46.50
2019-04-26T17:12:33.172Z,45.20
2019-04-26T17:15:03.376Z,45.70
2019-04-26T17:17:34.395Z,46.40
2019-04-26T17:20:06.599Z,46.80
2019-04-26T17:22:56.938Z,46.70
2019-04-26T17:25:32.074Z,47.10
2019-04-26T17:28:03.399Z,47.10
2019-04-26T17:30:40.816Z,47.20
2019-04-26T17:33:04.207Z,47.00
2019-04-26T17:35:36.749Z,46.30
2019-04-26T17:38:05.152Z,47.20
2019-04-26T17:40:36.600Z,46.80
2019-04-26T17:43:09.640Z,46.20
2019-04-26T17:45:40.877Z,47.30
2019-04-26T17:48:12.841Z,44.20
2019-04-26T17:50:42.368Z,46.50
2019-04-26T17:53:20.319Z,46.20
2019-04-26T17:55:45.857Z,46.80
2019-04-26T17:58:49.838Z,46.70
2019-04-26T18:01:08.375Z,46.60
2019-04-26T18:03:37.906Z,46.40
2019-04-26T18:06:09.703Z,46.40
2019-04-26T18:08:45.363Z,46.80
2019-04-26T18:11:18.892Z,46.50
2019-04-26T18:13:41.564Z,47.20
2019-04-26T18:16:11.020Z,47.10
2019-04-26T18:18:56.164Z,46.80
2019-04-26T18:21:29.967Z,46.50
2019-04-26T18:24:13.306Z,47.40
2019-04-26T18:26:42.754Z,47.10
2019-04-26T18:29:13.130Z,47.10
2019-04-26T18:31:43.837Z,46.60
2019-04-26T18:34:14.473Z,46.60
2019-04-26T18:36:43.954Z,47.00
2019-04-26T18:39:13.519Z,47.30
2019-04-26T18:41:43.378Z,47.00
2019-04-26T18:44:13.907Z,47.50
2019-04-26T18:46:47.100Z,47.40
2019-04-26T18:49:22.487Z,46.20
2019-04-26T18:51:48.182Z,47.50
2019-04-26T18:54:23.466Z,47.10
2019-04-26T18:56:55.178Z,47.70
2019-04-26T18:59:27.625Z,47.20
2019-04-26T19:01:55.800Z,46.80
2019-04-26T19:04:25.195Z,46.40
2019-04-26T19:06:54.642Z,45.70
2019-04-26T19:09:25.926Z,46.00
2019-04-26T19:11:56.267Z,45.30
2019-04-26T19:14:31.692Z,45.00
2019-04-26T19:17:02.871Z,44.20
2019-04-26T19:19:41.750Z,44.80
2019-04-26T19:22:15.654Z,44.90
2019-04-26T19:24:42.382Z,44.80
2019-04-26T19:27:12.531Z,44.60
2019-04-26T19:29:43.380Z,44.40
2019-04-26T19:32:12.919Z,43.90
2019-04-26T19:34:42.342Z,43.60
2019-04-26T19:37:11.734Z,43.40
2019-04-26T19:39:42.701Z,42.90
2019-04-26T19:42:13.859Z,42.50
2019-04-26T19:44:43.443Z,43.00
2019-04-26T19:47:14.619Z,43.10
2019-04-26T19:50:03.240Z,43.00
2019-04-26T19:52:40.601Z,43.00
2019-04-26T19:55:15.999Z,43.90
2019-04-26T19:57:47.001Z,44.30
2019-04-26T20:00:17.233Z,44.50
2019-04-26T20:02:46.616Z,44.80
2019-04-26T20:05:17.409Z,44.80
2019-04-26T20:07:47.030Z,44.80
2019-04-26T20:10:16.508Z,45.10
2019-04-26T20:12:46.024Z,45.00
2019-04-26T20:15:25.832Z,45.90
2019-04-26T20:17:52.535Z,46.00
2019-04-26T20:20:21.454Z,46.20
2019-04-26T20:22:49.090Z,46.40
2019-04-26T20:25:18.560Z,46.50
2019-04-26T20:27:48.026Z,46.80
2019-04-26T20:30:24.400Z,47.00
2019-04-26T20:32:52.362Z,47.20
2019-04-26T20:35:26.935Z,47.00
2019-04-26T20:37:56.328Z,47.30
2019-04-26T20:40:25.759Z,47.60
2019-04-26T20:43:01.638Z,47.40
2019-04-26T20:45:38.431Z,47.50
2019-04-26T20:47:57.451Z,47.80
2019-04-26T20:50:28.545Z,47.80
2019-04-26T20:53:00.573Z,48.00
2019-04-26T20:55:30.679Z,48.00
2019-04-26T20:58:04.885Z,48.10
2019-04-26T21:00:31.701Z,48.30
2019-04-26T21:03:21.195Z,48.40
2019-04-26T21:05:46.285Z,48.60
2019-04-26T21:08:10.133Z,48.50
2019-04-26T21:10:39.533Z,48.50
2019-04-26T21:13:09.123Z,48.60
2019-04-26T21:15:38.602Z,48.60
2019-04-26T21:18:08.001Z,48.70
2019-04-26T21:20:37.451Z,48.60
2019-04-26T21:23:06.827Z,49.00
2019-04-26T21:25:52.898Z,48.90
2019-04-26T21:28:23.931Z,49.60
2019-04-26T21:30:57.888Z,49.00
2019-04-26T21:33:35.384Z,49.00
2019-04-26T21:36:07.359Z,48.80
2019-04-26T21:38:54.682Z,49.10
2019-04-26T21:41:25.791Z,49.30
2019-04-26T21:43:55.184Z,49.20
2019-04-26T21:46:24.663Z,49.10
2019-04-26T21:48:54.055Z,49.10
2019-04-26T21:51:23.504Z,49.10
2019-04-26T21:53:53.081Z,49.00
2019-04-26T21:56:23.522Z,49.00
2019-04-26T21:58:53.383Z,49.80
2019-04-26T22:01:24.850Z,49.10
2019-04-26T22:03:58.436Z,49.10
2019-04-26T22:06:30.663Z,49.40
2019-04-26T22:09:23.775Z,49.50
2019-04-26T22:12:14.420Z,49.40
2019-04-26T22:14:46.398Z,49.80
2019-04-26T22:17:26.814Z,49.80
2019-04-26T22:20:16.235Z,49.90
2019-04-26T22:22:49.283Z,50.10
2019-04-26T22:25:20.311Z,50.10
2019-04-26T22:27:49.707Z,50.40
2019-04-26T22:30:28.361Z,50.50
2019-04-26T22:32:58.275Z,50.30
2019-04-26T22:35:25.763Z,50.50
2019-04-26T22:37:55.161Z,50.50
2019-04-26T22:40:27.197Z,50.60
2019-04-26T22:42:58.215Z,50.70
2019-04-26T22:45:29.327Z,50.70
2019-04-26T22:48:19.187Z,50.60
2019-04-26T22:50:43.678Z,50.70
2019-04-26T22:53:13.205Z,50.70
2019-04-26T22:55:43.585Z,50.90
2019-04-26T22:58:13.499Z,50.80
2019-04-26T23:00:43.791Z,51.10
2019-04-26T23:03:14.755Z,50.90
2019-04-26T23:05:44.143Z,50.90
2019-04-26T23:08:14.074Z,50.70
2019-04-26T23:10:46.604Z,50.90
2019-04-26T23:13:37.835Z,51.00
2019-04-26T23:16:14.240Z,51.10
2019-04-26T23:19:01.400Z,51.10
2019-04-26T23:21:38.406Z,51.30
2019-04-26T23:24:11.412Z,51.50
2019-04-26T23:26:41.627Z,51.60
2019-04-26T23:29:16.291Z,51.50
2019-04-26T23:31:41.910Z,51.60
2019-04-26T23:34:14.161Z,51.70
2019-04-26T23:36:43.757Z,51.70
2019-04-26T23:39:13.365Z,51.70
2019-04-26T23:41:53.812Z,51.80
2019-04-26T23:44:23.294Z,51.60
2019-04-26T23:46:56.634Z,52.30
2019-04-26T23:49:25.322Z,51.70
2019-04-26T23:52:00.903Z,51.70
2019-04-26T23:54:32.317Z,51.70
2019-04-26T23:57:02.898Z,51.70
2019-04-26T23:59:33.729Z,51.80
